createdAt,value
2022-08-05T00:01:36.510Z,11.20
2022-08-05T00:04:17.456Z,9.68
2022-08-05T00:06:47.259Z,14.73
2022-08-05T00:09:19.676Z,10.43
2022-08-05T00:11:49.211Z,12.02
2022-08-05T00:14:27.601Z,12.40
2022-08-05T00:16:58.052Z,12.70
2022-08-05T00:19:33.715Z,14.10
2022-08-05T00:22:14.053Z,14.23
2022-08-05T00:24:47.654Z,15.43
2022-08-05T00:27:35.787Z,12.90
2022-08-05T00:30:05.962Z,16.23
2022-08-05T00:32:40.575Z,17.02
2022-08-05T00:35:09.905Z,13.93
2022-08-05T00:37:53.443Z,16.52
2022-08-05T00:40:28.485Z,14.63
2022-08-05T00:42:59.951Z,13.13
2022-08-05T00:45:43.083Z,15.10
2022-08-05T00:48:14.167Z,15.38
2022-08-05T00:50:46.017Z,12.32
2022-08-05T00:54:00.057Z,16.02
2022-08-05T00:56:07.855Z,18.17
2022-08-05T00:58:36.931Z,11.70
2022-08-05T01:01:08.549Z,12.20
2022-08-05T01:03:37.565Z,13.00
2022-08-05T01:06:11.183Z,14.80
2022-08-05T01:08:44.698Z,17.05
2022-08-05T01:11:21.903Z,18.60
2022-08-05T01:14:03.369Z,14.05
2022-08-05T01:16:40.999Z,13.45
2022-08-05T01:19:36.583Z,13.55
2022-08-05T01:22:28.075Z,12.52
2022-08-05T01:25:39.878Z,14.43
2022-08-05T01:28:25.750Z,12.35
2022-08-05T01:30:58.524Z,13.60
2022-08-05T01:33:37.182Z,12.98
2022-08-05T01:36:13.075Z,14.20
2022-08-05T01:38:48.529Z,11.57
2022-08-05T01:41:25.779Z,13.13
2022-08-05T01:43:57.610Z,9.60
2022-08-05T01:46:42.077Z,10.43
2022-08-05T01:49:24.215Z,12.10
2022-08-05T01:51:58.869Z,9.07
2022-08-05T01:54:34.141Z,11.93
2022-08-05T01:58:11.967Z,12.05
2022-08-05T02:00:14.522Z,11.93
2022-08-05T02:02:51.377Z,14.85
2022-08-05T02:05:29.937Z,16.35
2022-08-05T02:08:01.249Z,15.55
2022-08-05T02:10:37.455Z,14.65
2022-08-05T02:13:16.448Z,13.10
2022-08-05T02:15:51.840Z,13.00
2022-08-05T02:18:34.204Z,11.77
2022-08-05T02:21:15.358Z,16.52
2022-08-05T02:23:46.564Z,13.52
2022-08-05T02:26:26.620Z,16.70
2022-08-05T02:28:58.373Z,13.32
2022-08-05T02:31:34.897Z,12.95
2022-08-05T02:34:10.010Z,13.60
2022-08-05T02:36:45.308Z,12.45
2022-08-05T02:39:21.407Z,13.75
2022-08-05T02:41:57.815Z,12.25
2022-08-05T02:44:32.026Z,13.57
2022-08-05T02:47:03.039Z,12.68
2022-08-05T02:49:40.468Z,11.77
2022-08-05T02:52:13.617Z,10.80
2022-08-05T02:55:02.038Z,10.40
2022-08-05T02:58:11.547Z,10.27
2022-08-05T03:00:25.494Z,9.73
2022-08-05T03:02:59.357Z,11.10
2022-08-05T03:06:53.943Z,9.75
2022-08-05T03:08:17.668Z,10.00
2022-08-05T03:11:01.180Z,11.20
2022-08-05T03:13:52.198Z,13.07
2022-08-05T03:16:31.790Z,12.68
2022-08-05T03:19:01.676Z,9.10
2022-08-05T03:21:41.535Z,8.25
2022-08-05T03:24:18.459Z,10.70
2022-08-05T03:26:58.200Z,9.30
2022-08-05T03:29:44.435Z,9.35
2022-08-05T03:32:15.813Z,7.07
2022-08-05T03:34:50.748Z,11.07
2022-08-05T03:37:21.302Z,10.95
2022-08-05T03:39:59.475Z,8.68
2022-08-05T03:42:32.411Z,11.95
2022-08-05T03:45:03.487Z,9.77
2022-08-05T03:47:49.751Z,8.75
2022-08-05T03:50:19.338Z,9.80
2022-08-05T03:55:50.064Z,9.65
2022-08-05T03:56:10.554Z,11.55
2022-08-05T03:58:44.759Z,10.55
2022-08-05T04:01:15.365Z,11.18
2022-08-05T04:04:10.489Z,12.18
2022-08-05T04:06:47.751Z,9.75
2022-08-05T04:09:25.866Z,10.57
2022-08-05T04:11:56.751Z,10.57
2022-08-05T04:14:30.331Z,9.50
2022-08-05T04:17:02.981Z,9.13
2022-08-05T04:19:31.833Z,7.55
2022-08-05T04:22:08.280Z,7.57
2022-08-05T04:24:44.448Z,9.77
2022-08-05T04:27:14.195Z,10.05
2022-08-05T04:29:43.826Z,10.45
2022-08-05T04:32:12.694Z,7.32
2022-08-05T04:34:43.376Z,7.15
2022-08-05T04:37:13.253Z,7.93
2022-08-05T04:39:41.523Z,7.65
2022-08-05T04:42:10.454Z,7.53
2022-08-05T04:44:39.123Z,7.88
2022-08-05T04:47:09.385Z,8.30
2022-08-05T04:50:01.782Z,7.78
2022-08-05T04:52:29.333Z,7.80
2022-08-05T04:55:05.339Z,7.90
2022-08-05T04:57:51.442Z,8.05
2022-08-05T05:00:23.636Z,8.77
2022-08-05T05:02:52.666Z,8.80
2022-08-05T05:05:28.856Z,7.57
2022-08-05T05:08:03.241Z,8.50
2022-08-05T05:10:33.951Z,7.28
2022-08-05T05:13:04.041Z,8.13
2022-08-05T05:15:56.569Z,6.82
2022-08-05T05:18:31.234Z,7.32
2022-08-05T05:21:03.818Z,8.70
2022-08-05T05:24:02.526Z,6.78
2022-08-05T05:26:28.571Z,7.78
2022-08-05T05:29:02.665Z,7.75
2022-08-05T05:31:42.868Z,6.78
2022-08-05T05:34:15.513Z,6.90
2022-08-05T05:36:44.376Z,5.57
2022-08-05T05:39:16.666Z,7.50
2022-08-05T05:41:54.057Z,9.00
2022-08-05T05:44:36.330Z,7.32
2022-08-05T05:47:21.742Z,5.72
2022-08-05T05:49:56.590Z,6.40
2022-08-05T05:52:34.566Z,6.15
2022-08-05T05:55:13.129Z,5.90
2022-08-05T05:57:52.620Z,7.68
2022-08-05T06:00:27.794Z,7.55
2022-08-05T06:03:02.931Z,7.63
2022-08-05T06:05:31.943Z,6.00
2022-08-05T06:08:01.943Z,6.22
2022-08-05T06:10:36.570Z,5.30
2022-08-05T06:13:06.387Z,5.72
2022-08-05T06:16:31.007Z,6.25
2022-08-05T06:18:31.068Z,5.55
2022-08-05T06:21:00.854Z,4.55
2022-08-05T06:23:43.542Z,6.00
2022-08-05T06:26:21.330Z,6.90
2022-08-05T06:28:52.454Z,6.75
2022-08-05T06:31:21.979Z,5.50
2022-08-05T06:34:06.956Z,6.35
2022-08-05T06:36:53.675Z,4.05
2022-08-05T06:39:27.033Z,4.18
2022-08-05T06:41:58.833Z,5.00
2022-08-05T06:44:27.657Z,7.45
2022-08-05T06:46:56.431Z,6.00
2022-08-05T06:50:02.017Z,4.05
2022-08-05T06:52:38.156Z,3.67
2022-08-05T06:55:05.964Z,3.88
2022-08-05T06:58:03.281Z,5.57
2022-08-05T07:00:25.508Z,5.18
2022-08-05T07:02:54.441Z,4.40
2022-08-05T07:05:37.252Z,4.10
2022-08-05T07:08:10.641Z,5.18
2022-08-05T07:10:53.177Z,4.90
2022-08-05T07:13:57.550Z,5.50
2022-08-05T07:18:00.693Z,2.75
2022-08-05T07:22:29.078Z,3.97
2022-08-05T07:25:23.376Z,2.95
2022-08-05T07:27:57.250Z,3.22
2022-08-05T07:30:34.036Z,2.75
2022-08-05T07:33:05.486Z,5.97
2022-08-05T07:36:01.939Z,1.92
2022-08-05T07:38:34.513Z,2.30
2022-08-05T07:42:08.709Z,3.55
2022-08-05T07:43:58.977Z,3.85
2022-08-05T07:46:33.766Z,2.33
2022-08-05T07:49:06.225Z,2.38
2022-08-05T07:51:41.033Z,3.45
2022-08-05T07:54:30.903Z,2.53
2022-08-05T07:57:41.997Z,1.75
2022-08-05T07:59:49.002Z,2.45
2022-08-05T08:02:19.006Z,4.00
2022-08-05T08:04:48.647Z,2.63
2022-08-05T08:07:22.141Z,3.15
2022-08-05T08:09:53.131Z,5.63
2022-08-05T08:12:37.419Z,2.42
2022-08-05T08:15:15.206Z,4.50
2022-08-05T08:17:52.727Z,1.80
2022-08-05T08:20:45.203Z,2.92
2022-08-05T08:24:03.163Z,5.20
2022-08-05T08:26:02.853Z,4.25
2022-08-05T08:28:35.702Z,3.63
2022-08-05T08:31:04.474Z,6.45
2022-08-05T08:33:37.730Z,4.30
2022-08-05T08:36:38.474Z,3.05
2022-08-05T08:38:57.470Z,3.30
2022-08-05T08:41:52.524Z,3.97
2022-08-05T08:45:17.743Z,3.10
2022-08-05T08:47:47.285Z,4.18
2022-08-05T08:50:06.225Z,3.25
2022-08-05T08:52:55.851Z,2.90
2022-08-05T08:55:31.944Z,3.00
2022-08-05T08:58:13.799Z,2.55
2022-08-05T09:00:43.483Z,2.35
2022-08-05T09:03:16.184Z,1.88
2022-08-05T09:06:07.633Z,3.50
2022-08-05T09:08:40.459Z,4.95
2022-08-05T09:11:12.141Z,2.65
2022-08-05T09:14:10.256Z,3.47
2022-08-05T09:16:32.067Z,5.32
2022-08-05T09:19:00.458Z,4.65
2022-08-05T09:22:22.326Z,4.35
2022-08-05T09:24:18.555Z,4.30
2022-08-05T09:26:53.228Z,3.40
2022-08-05T09:29:21.739Z,4.78
2022-08-05T09:32:40.245Z,2.20
2022-08-05T09:34:55.082Z,4.03
2022-08-05T09:38:17.266Z,3.60
2022-08-05T09:40:36.219Z,3.47
2022-08-05T09:43:08.576Z,3.20
2022-08-05T09:46:07.312Z,4.40
2022-08-05T09:48:30.634Z,3.10
2022-08-05T09:51:03.322Z,4.30
2022-08-05T09:53:53.756Z,4.68
2022-08-05T09:56:27.245Z,5.05
2022-08-05T09:59:01.037Z,4.35
2022-08-05T10:01:34.503Z,5.78
2022-08-05T10:04:10.388Z,5.35
2022-08-05T10:06:40.495Z,4.22
2022-08-05T10:09:25.350Z,3.05
2022-08-05T10:12:18.621Z,2.95
2022-08-05T10:15:16.321Z,2.38
2022-08-05T10:18:04.685Z,2.15
2022-08-05T10:20:34.771Z,4.25
2022-08-05T10:23:03.421Z,2.95
2022-08-05T10:25:33.190Z,2.50
2022-08-05T10:28:12.679Z,3.50
2022-08-05T10:32:49.032Z,3.60
2022-08-05T10:33:36.177Z,3.05
2022-08-05T10:36:06.796Z,3.25
2022-08-05T10:38:39.103Z,2.67
2022-08-05T10:41:45.192Z,3.28
2022-08-05T10:44:20.495Z,4.72
2022-08-05T10:46:54.301Z,4.80
2022-08-05T10:49:27.198Z,3.75
2022-08-05T10:52:03.222Z,2.10
2022-08-05T10:54:56.219Z,3.95
2022-08-05T10:57:41.600Z,2.22
2022-08-05T11:00:20.085Z,3.05
2022-08-05T11:03:24.234Z,3.50
2022-08-05T11:06:16.252Z,3.28
2022-08-05T11:09:32.354Z,3.13
2022-08-05T11:12:50.932Z,3.10
2022-08-05T11:16:00.235Z,3.28
2022-08-05T11:18:30.243Z,3.80
2022-08-05T11:21:02.892Z,3.75
2022-08-05T11:24:04.032Z,2.47
2022-08-05T11:26:34.029Z,4.80
2022-08-05T11:29:13.059Z,1.95
2022-08-05T11:31:54.212Z,2.78
2022-08-05T11:34:39.074Z,3.97
2022-08-05T11:38:27.930Z,3.03
2022-08-05T11:40:02.833Z,1.38
2022-08-05T11:42:38.081Z,1.80
2022-08-05T11:45:14.304Z,1.05
2022-08-05T11:47:54.689Z,2.03
2022-08-05T11:50:23.772Z,1.95
2022-08-05T11:52:57.639Z,2.05
2022-08-05T11:55:32.031Z,3.67
2022-08-05T11:58:09.717Z,3.30
2022-08-05T12:00:44.326Z,1.52
2022-08-05T12:03:24.107Z,2.63
2022-08-05T12:06:06.286Z,2.92
2022-08-05T12:08:51.070Z,4.00
2022-08-05T12:11:22.878Z,3.95
2022-08-05T12:14:03.940Z,3.13
2022-08-05T12:16:38.576Z,3.17
2022-08-05T12:19:08.763Z,3.65
2022-08-05T12:21:44.653Z,2.97
2022-08-05T12:24:17.602Z,2.13
2022-08-05T12:26:50.140Z,2.15
2022-08-05T12:29:23.027Z,5.90
2022-08-05T12:31:55.461Z,3.22
2022-08-05T12:34:28.453Z,4.10
2022-08-05T12:36:59.746Z,3.83
2022-08-05T12:39:37.118Z,2.72
2022-08-05T12:42:14.517Z,2.03
2022-08-05T12:44:44.603Z,3.75
2022-08-05T12:47:17.167Z,4.88
2022-08-05T12:50:04.622Z,3.45
2022-08-05T12:52:39.624Z,2.20
2022-08-05T12:55:23.812Z,2.08
2022-08-05T12:58:51.067Z,3.72
2022-08-05T13:02:00.627Z,2.45
2022-08-05T13:03:42.351Z,2.03
2022-08-05T13:06:17.713Z,2.80
2022-08-05T13:08:51.762Z,4.30
2022-08-05T13:11:59.740Z,3.47
2022-08-05T13:14:20.105Z,4.07
2022-08-05T13:16:56.545Z,3.45
2022-08-05T13:19:51.631Z,3.80
2022-08-05T13:22:28.048Z,3.72
2022-08-05T13:25:00.701Z,3.10
2022-08-05T13:27:38.299Z,4.03
2022-08-05T13:30:32.848Z,3.67
2022-08-05T13:33:01.471Z,1.65
2022-08-05T13:35:47.406Z,2.28
2022-08-05T13:38:30.448Z,2.50
2022-08-05T13:41:02.738Z,2.10
2022-08-05T13:43:44.466Z,3.15
2022-08-05T13:46:16.154Z,2.80
2022-08-05T13:48:58.647Z,2.80
2022-08-05T13:51:36.644Z,3.45
2022-08-05T13:54:11.723Z,3.55
2022-08-05T13:56:45.381Z,1.95
2022-08-05T13:59:21.413Z,2.88
2022-08-05T14:01:58.979Z,2.45
2022-08-05T14:04:52.057Z,3.80
2022-08-05T14:08:02.651Z,1.63
2022-08-05T14:10:28.897Z,2.60
2022-08-05T14:12:59.886Z,3.75
2022-08-05T14:16:05.386Z,2.72
2022-08-05T14:18:23.054Z,4.03
2022-08-05T14:20:54.924Z,5.28
2022-08-05T14:23:28.077Z,2.75
2022-08-05T14:26:04.998Z,2.30
2022-08-05T14:28:34.679Z,3.33
2022-08-05T14:31:02.862Z,5.15
2022-08-05T14:34:00.361Z,3.00
2022-08-05T14:36:21.883Z,6.35
2022-08-05T14:38:52.375Z,6.25
2022-08-05T14:41:21.597Z,5.68
2022-08-05T14:44:01.492Z,4.07
2022-08-05T14:46:35.403Z,5.80
2022-08-05T14:49:08.063Z,5.47
2022-08-05T14:51:37.969Z,5.13
2022-08-05T14:54:27.771Z,3.28
2022-08-05T14:56:57.666Z,5.18
2022-08-05T14:59:29.470Z,4.63
2022-08-05T15:02:03.827Z,3.92
2022-08-05T15:04:43.809Z,4.80
2022-08-05T15:08:06.447Z,3.40
2022-08-05T15:10:03.310Z,6.18
2022-08-05T15:12:45.789Z,3.60
2022-08-05T15:15:53.809Z,5.85
2022-08-05T15:18:09.521Z,6.30
2022-08-05T15:20:37.800Z,4.15
2022-08-05T15:23:06.852Z,4.78
2022-08-05T15:25:51.888Z,8.13
2022-08-05T15:28:27.468Z,4.38
2022-08-05T15:30:56.266Z,3.78
2022-08-05T15:34:04.848Z,3.75
2022-08-05T15:36:17.699Z,3.53
2022-08-05T15:40:41.719Z,3.22
2022-08-05T15:41:55.771Z,2.80
2022-08-05T15:44:32.367Z,4.53
2022-08-05T15:47:03.706Z,4.20
2022-08-05T15:49:48.068Z,6.47
2022-08-05T15:52:51.989Z,3.15
2022-08-05T15:55:16.276Z,4.00
2022-08-05T15:57:48.932Z,4.57
2022-08-05T16:00:26.152Z,4.72
2022-08-05T16:03:06.746Z,3.67
2022-08-05T16:05:35.428Z,3.58
2022-08-05T16:08:07.383Z,7.32
2022-08-05T16:10:36.412Z,4.25
2022-08-05T16:13:06.672Z,5.88
2022-08-05T16:15:34.857Z,5.47
2022-08-05T16:18:04.153Z,4.50
2022-08-05T16:20:32.747Z,6.57
2022-08-05T16:23:01.121Z,4.95
2022-08-05T16:25:33.834Z,5.25
2022-08-05T16:28:05.971Z,7.35
2022-08-05T16:30:36.585Z,5.10
2022-08-05T16:33:05.354Z,7.63
2022-08-05T16:35:41.884Z,6.85
2022-08-05T16:38:24.700Z,5.35
2022-08-05T16:41:00.454Z,5.93
2022-08-05T16:43:31.386Z,5.68
2022-08-05T16:46:23.752Z,5.13
2022-08-05T16:48:51.714Z,5.32
2022-08-05T16:51:21.067Z,8.15
2022-08-05T16:54:03.296Z,5.60
2022-08-05T16:56:41.622Z,6.57
2022-08-05T16:59:10.613Z,4.93
2022-08-05T17:01:53.228Z,5.57
2022-08-05T17:04:26.139Z,5.28
2022-08-05T17:07:00.189Z,4.80
2022-08-05T17:09:29.944Z,6.10
2022-08-05T17:11:59.331Z,7.22
2022-08-05T17:14:37.712Z,7.45
2022-08-05T17:17:14.888Z,6.95
2022-08-05T17:19:46.048Z,5.97
2022-08-05T17:22:24.453Z,6.40
2022-08-05T17:24:58.235Z,7.43
2022-08-05T17:27:33.995Z,5.18
2022-08-05T17:30:12.171Z,5.57
2022-08-05T17:32:49.248Z,6.15
2022-08-05T17:35:20.848Z,5.90
2022-08-05T17:37:50.592Z,5.85
2022-08-05T17:40:22.316Z,5.57
2022-08-05T17:42:52.093Z,4.80
2022-08-05T17:45:29.598Z,5.72
2022-08-05T17:48:08.903Z,6.78
2022-08-05T17:50:37.089Z,5.75
2022-08-05T17:53:08.643Z,5.82
2022-08-05T17:55:40.062Z,6.85
2022-08-05T17:58:12.495Z,8.93
2022-08-05T18:00:47.507Z,5.40
2022-08-05T18:03:58.376Z,7.25
2022-08-05T18:06:14.926Z,5.57
2022-08-05T18:08:52.022Z,7.22
2022-08-05T18:11:23.831Z,6.22
2022-08-05T18:13:55.411Z,8.30
2022-08-05T18:16:24.004Z,10.02
2022-08-05T18:18:53.764Z,5.28
2022-08-05T18:21:22.856Z,5.30
2022-08-05T18:23:54.599Z,5.57
2022-08-05T18:26:29.361Z,6.45
2022-08-05T18:29:00.657Z,7.40
2022-08-05T18:31:33.775Z,6.93
2022-08-05T18:34:06.039Z,5.38
2022-08-05T18:36:36.410Z,4.82
2022-08-05T18:39:08.678Z,5.88
2022-08-05T18:41:53.386Z,5.22
2022-08-05T18:44:34.961Z,11.25
2022-08-05T18:47:17.289Z,5.32
2022-08-05T18:50:04.625Z,5.38
2022-08-05T18:52:41.739Z,5.05
2022-08-05T18:55:22.326Z,6.60
2022-08-05T18:57:53.925Z,5.95
2022-08-05T19:00:28.523Z,7.45
2022-08-05T19:03:03.697Z,5.90
2022-08-05T19:06:11.397Z,6.80
2022-08-05T19:08:30.652Z,5.35
2022-08-05T19:11:04.504Z,7.53
2022-08-05T19:13:35.913Z,6.63
2022-08-05T19:16:24.502Z,6.18
2022-08-05T19:18:56.630Z,7.15
2022-08-05T19:21:34.460Z,7.28
2022-08-05T19:24:09.032Z,5.70
2022-08-05T19:26:54.201Z,7.60
2022-08-05T19:29:26.584Z,5.05
2022-08-05T19:32:04.595Z,6.60
2022-08-05T19:34:33.105Z,6.78
2022-08-05T19:37:03.003Z,7.88
2022-08-05T19:39:31.882Z,6.05
2022-08-05T19:42:09.320Z,6.10
2022-08-05T19:44:45.259Z,8.07
2022-08-05T19:47:16.449Z,7.97
2022-08-05T19:49:46.036Z,6.18
2022-08-05T19:52:31.242Z,7.07
2022-08-05T19:55:06.964Z,6.28
2022-08-05T19:57:49.130Z,4.70
2022-08-05T20:00:24.424Z,8.10
2022-08-05T20:02:53.373Z,6.68
2022-08-05T20:05:24.429Z,5.50
2022-08-05T20:07:58.115Z,6.32
2022-08-05T20:10:27.999Z,6.55
2022-08-05T20:12:57.339Z,9.98
2022-08-05T20:15:52.535Z,7.90
2022-08-05T20:18:33.902Z,5.57
2022-08-05T20:21:02.432Z,7.80
2022-08-05T20:23:40.715Z,7.45
2022-08-05T20:26:21.293Z,10.38
2022-08-05T20:28:55.721Z,6.65
2022-08-05T20:31:28.447Z,8.13
2022-08-05T20:34:12.487Z,11.23
2022-08-05T20:36:43.273Z,8.43
2022-08-05T20:39:16.258Z,9.25
2022-08-05T20:41:46.738Z,5.95
2022-08-05T20:44:29.417Z,10.38
2022-08-05T20:47:00.361Z,9.75
2022-08-05T20:49:28.690Z,7.03
2022-08-05T20:51:58.024Z,8.30
2022-08-05T20:54:43.066Z,6.88
2022-08-05T20:57:42.362Z,5.50
2022-08-05T21:00:20.106Z,8.77
2022-08-05T21:03:01.392Z,7.93
2022-08-05T21:05:47.955Z,8.27
2022-08-05T21:08:18.333Z,7.90
2022-08-05T21:10:49.406Z,8.40
2022-08-05T21:13:36.706Z,7.30
2022-08-05T21:16:07.538Z,7.07
2022-08-05T21:18:35.933Z,6.18
2022-08-05T21:21:04.585Z,5.95
2022-08-05T21:23:37.465Z,8.38
2022-08-05T21:26:14.369Z,6.93
2022-08-05T21:28:48.034Z,7.65
2022-08-05T21:31:19.542Z,5.97
2022-08-05T21:33:49.637Z,5.30
2022-08-05T21:36:19.256Z,7.55
2022-08-05T21:38:58.484Z,7.47
2022-08-05T21:41:33.848Z,10.35
2022-08-05T21:44:04.083Z,9.40
2022-08-05T21:46:34.434Z,5.00
2022-08-05T21:49:07.112Z,8.30
2022-08-05T21:52:22.768Z,6.07
2022-08-05T21:54:30.608Z,7.47
2022-08-05T22:00:06.130Z,6.40
2022-08-05T22:02:35.543Z,8.52
2022-08-05T22:05:04.403Z,7.70
2022-08-05T22:07:39.717Z,8.30
2022-08-05T22:10:26.680Z,6.43
2022-08-05T22:12:59.135Z,9.07
2022-08-05T22:16:02.431Z,9.32
2022-08-05T22:18:25.946Z,10.73
2022-08-05T22:20:54.320Z,7.72
2022-08-05T22:24:01.712Z,9.45
2022-08-05T22:26:49.921Z,6.78
2022-08-05T22:29:26.589Z,8.05
2022-08-05T22:32:02.909Z,5.60
2022-08-05T22:34:32.520Z,6.20
2022-08-05T22:37:04.014Z,9.50
2022-08-05T22:39:34.500Z,8.00
2022-08-05T22:42:12.412Z,7.93
2022-08-05T22:44:48.407Z,6.53
2022-08-05T22:47:29.268Z,8.20
2022-08-05T22:50:19.731Z,8.18
2022-08-05T22:52:49.251Z,8.43
2022-08-05T22:55:18.960Z,9.60
2022-08-05T22:57:49.374Z,6.40
2022-08-05T23:00:21.789Z,6.80
2022-08-05T23:02:52.026Z,6.80
2022-08-05T23:05:22.761Z,6.35
2022-08-05T23:07:52.076Z,5.85
2022-08-05T23:10:23.538Z,7.47
2022-08-05T23:12:54.614Z,7.10
2022-08-05T23:15:30.034Z,7.97
2022-08-05T23:18:06.106Z,5.13
2022-08-05T23:20:40.517Z,7.38
2022-08-05T23:23:11.626Z,6.18
2022-08-05T23:25:54.831Z,6.50
2022-08-05T23:28:28.743Z,9.65
2022-08-05T23:31:15.839Z,7.20
2022-08-05T23:34:04.255Z,8.25
2022-08-05T23:36:39.530Z,6.38
2022-08-05T23:39:09.930Z,6.72
2022-08-05T23:41:48.394Z,7.10
2022-08-05T23:44:19.844Z,6.25
2022-08-05T23:46:54.850Z,6.75
2022-08-05T23:49:35.574Z,8.20
2022-08-05T23:52:25.182Z,7.10
2022-08-05T23:54:54.274Z,6.63
2022-08-05T23:57:22.828Z,6.80
